Time;durP1;ratioP1;P1;durP2;ratioP2;P2;SDS_P1;SDS_P2;PMS_P1;PMS_P2;Temp;Humidity;BMP_temperature;BMP_pressure;BME280_temperature;BME280_humidity;BME280_pressure;Samples;Min_cycle;Max_cycle;Signal;HPM_P1;HPM_P2
2023/10/31 00:00:54;;;;;;;4.10;3.53;;;13.30;99.90;;;;;;5091556;28;20202;-67
2023/10/31 00:03:21;;;;;;;5.77;3.53;;;13.40;99.90;;;;;;5104815;28;20579;-67
2023/10/31 00:05:49;;;;;;;5.07;3.27;;;13.30;99.90;;;;;;5091094;28;20780;-68
2023/10/31 00:08:16;;;;;;;4.03;3.63;;;13.40;99.90;;;;;;5085066;28;20214;-67
2023/10/31 00:10:44;;;;;;;5.93;3.93;;;13.30;99.90;;;;;;5084713;28;20290;-67
2023/10/31 00:13:12;;;;;;;5.07;3.97;;;13.30;99.90;;;;;;5084588;28;20206;-67
2023/10/31 00:15:39;;;;;;;4.00;3.40;;;13.40;99.90;;;;;;5084323;28;20696;-67
2023/10/31 00:18:06;;;;;;;4.57;3.63;;;13.40;99.90;;;;;;5090314;28;20288;-67
2023/10/31 00:20:32;;;;;;;3.90;3.50;;;13.40;99.90;;;;;;5099738;28;20313;-67
2023/10/31 00:23:04;;;;;;;5.33;3.63;;;13.40;99.90;;;;;;5105133;28;20288;-67
2023/10/31 00:25:31;;;;;;;5.53;3.60;;;13.50;99.90;;;;;;5107276;28;20293;-67
2023/10/31 00:27:58;;;;;;;5.27;3.67;;;13.50;99.90;;;;;;5108560;28;20210;-67
2023/10/31 00:30:24;;;;;;;3.60;3.30;;;13.50;99.90;;;;;;5108739;28;20293;-67
2023/10/31 00:32:51;;;;;;;3.40;3.10;;;13.50;99.90;;;;;;5099155;28;20206;-67
2023/10/31 00:35:18;;;;;;;4.07;3.53;;;13.50;99.90;;;;;;5095723;28;20238;-67
2023/10/31 00:37:45;;;;;;;6.57;3.57;;;13.50;99.90;;;;;;5088290;28;20317;-67
2023/10/31 00:40:16;;;;;;;5.07;3.60;;;13.50;99.90;;;;;;5088349;28;20218;-67
2023/10/31 00:42:43;;;;;;;4.80;3.77;;;13.50;99.90;;;;;;5094726;28;20321;-67
2023/10/31 00:45:10;;;;;;;5.10;3.60;;;13.50;99.90;;;;;;5108837;28;20210;-67
2023/10/31 00:47:37;;;;;;;4.50;3.63;;;13.40;99.90;;;;;;5102597;28;20648;-67
2023/10/31 00:50:05;;;;;;;4.07;3.40;;;13.40;99.90;;;;;;5108964;27;20313;-67
2023/10/31 00:52:32;;;;;;;3.70;3.40;;;13.40;99.90;;;;;;5108894;28;20285;-67
2023/10/31 00:54:59;;;;;;;4.77;3.70;;;13.40;99.90;;;;;;5108454;28;20233;-67
2023/10/31 00:57:29;;;;;;;4.50;3.67;;;13.40;99.90;;;;;;5108505;27;20300;-67
2023/10/31 00:59:56;;;;;;;5.63;3.50;;;13.40;99.90;;;;;;5108600;28;20195;-67
2023/10/31 01:02:23;;;;;;;5.43;3.63;;;13.30;99.90;;;;;;5107892;28;20301;-67
2023/10/31 01:04:50;;;;;;;5.50;3.47;;;13.30;99.90;;;;;;5108566;28;20214;-66
2023/10/31 01:07:17;;;;;;;4.40;3.53;;;13.30;99.90;;;;;;5108628;27;20216;-66
2023/10/31 01:09:45;;;;;;;3.70;3.50;;;13.30;99.90;;;;;;5108463;28;20297;-66
2023/10/31 01:12:12;;;;;;;4.57;4.00;;;13.30;99.90;;;;;;5108415;28;20213;-66
2023/10/31 01:14:40;;;;;;;4.37;3.57;;;13.30;99.90;;;;;;5090959;28;20230;-67
2023/10/31 01:17:07;;;;;;;5.73;3.63;;;13.30;99.90;;;;;;5088259;28;20297;-66
2023/10/31 01:19:33;;;;;;;5.07;3.53;;;13.30;99.90;;;;;;5087414;28;20675;-67
2023/10/31 01:22:00;;;;;;;3.67;3.30;;;13.30;99.90;;;;;;5087576;28;20207;-67
2023/10/31 01:24:27;;;;;;;5.47;3.67;;;13.30;99.90;;;;;;5087274;28;20207;-67
2023/10/31 01:26:54;;;;;;;4.00;3.70;;;13.30;99.90;;;;;;5087098;28;20206;-67
2023/10/31 01:29:21;;;;;;;5.37;3.77;;;13.20;99.90;;;;;;5105275;28;20624;-67
2023/10/31 01:31:49;;;;;;;4.70;3.63;;;13.20;99.90;;;;;;5107854;28;20212;-67
2023/10/31 01:34:16;;;;;;;4.53;3.70;;;13.20;99.90;;;;;;5107736;28;20216;-67
2023/10/31 01:36:43;;;;;;;5.23;4.00;;;13.20;99.90;;;;;;5105068;28;20669;-67
2023/10/31 01:39:10;;;;;;;4.67;4.13;;;13.20;99.90;;;;;;5087592;28;20313;-67
2023/10/31 01:41:37;;;;;;;4.93;3.67;;;13.10;99.90;;;;;;5091965;28;20925;-67
2023/10/31 01:44:04;;;;;;;4.53;3.47;;;13.20;99.90;;;;;;5107378;28;20198;-66
2023/10/31 01:46:31;;;;;;;4.03;3.63;;;13.20;99.90;;;;;;5107678;28;20212;-67
2023/10/31 01:48:59;;;;;;;4.53;3.77;;;13.10;99.90;;;;;;5107651;28;20598;-66
2023/10/31 01:51:27;;;;;;;6.77;4.03;;;13.10;99.90;;;;;;5107687;27;20293;-67
2023/10/31 01:53:54;;;;;;;4.10;3.60;;;13.10;99.90;;;;;;5107662;28;20229;-67
2023/10/31 01:56:22;;;;;;;4.40;4.10;;;13.10;99.90;;;;;;5107741;27;20230;-67
2023/10/31 01:58:50;;;;;;;3.90;3.60;;;13.10;99.90;;;;;;5107948;28;20292;-67
2023/10/31 02:01:17;;;;;;;3.97;3.30;;;13.10;99.90;;;;;;5106577;28;20672;-66
2023/10/31 02:03:44;;;;;;;6.40;3.83;;;13.10;99.90;;;;;;5104995;28;20238;-67
2023/10/31 02:06:12;;;;;;;4.10;3.77;;;13.10;99.90;;;;;;5087312;28;20239;-67
2023/10/31 02:08:39;;;;;;;5.27;3.83;;;13.00;99.90;;;;;;5087312;28;20211;-67
2023/10/31 02:11:09;;;;;;;4.87;4.07;;;13.00;99.90;;;;;;5087347;28;20576;-67
2023/10/31 02:13:37;;;;;;;4.30;3.80;;;13.00;99.90;;;;;;5087128;28;20233;-67
2023/10/31 02:16:04;;;;;;;7.17;3.87;;;13.10;99.90;;;;;;5086621;28;20313;-67
2023/10/31 02:18:31;;;;;;;4.23;3.80;;;13.00;99.90;;;;;;5086471;28;20202;-67
2023/10/31 02:20:58;;;;;;;6.23;3.77;;;13.00;99.90;;;;;;5087336;28;20309;-68
2023/10/31 02:23:26;;;;;;;7.10;3.80;;;13.00;99.90;;;;;;5106729;28;20210;-68
2023/10/31 02:25:53;;;;;;;5.53;3.63;;;13.00;99.90;;;;;;5104575;28;20706;-67
2023/10/31 02:28:19;;;;;;;8.17;4.10;;;12.90;99.90;;;;;;5103779;28;20245;-67
2023/10/31 02:30:46;;;;;;;3.87;3.57;;;13.00;99.90;;;;;;5106954;28;20213;-68
2023/10/31 02:33:13;;;;;;;4.63;4.00;;;12.90;99.90;;;;;;5101237;28;20208;-67
2023/10/31 02:35:39;;;;;;;6.80;3.77;;;12.90;99.90;;;;;;5096237;28;20776;-68
2023/10/31 02:38:06;;;;;;;4.30;3.90;;;12.90;99.90;;;;;;5099847;28;20341;-67
2023/10/31 02:40:34;;;;;;;4.03;3.67;;;12.90;99.90;;;;;;5106223;28;20236;-68
2023/10/31 02:43:02;;;;;;;4.37;3.97;;;12.90;99.90;;;;;;5106685;28;20419;-67
2023/10/31 02:45:29;;;;;;;6.57;4.37;;;12.90;99.90;;;;;;5094889;28;20215;-67
2023/10/31 02:47:56;;;;;;;5.63;3.73;;;12.90;99.90;;;;;;5085825;28;20242;-68
2023/10/31 02:50:23;;;;;;;5.27;3.83;;;12.90;99.90;;;;;;5086664;28;20205;-68
2023/10/31 02:52:50;;;;;;;4.70;4.07;;;12.90;99.90;;;;;;5085799;28;20229;-68
2023/10/31 02:55:17;;;;;;;5.80;4.40;;;12.90;99.90;;;;;;5105391;28;20737;-67
2023/10/31 02:57:45;;;;;;;5.93;4.00;;;12.90;99.90;;;;;;5105966;28;20729;-68
2023/10/31 03:00:13;;;;;;;4.17;3.77;;;12.90;99.90;;;;;;5106323;27;20301;-67
2023/10/31 03:02:39;;;;;;;5.03;4.00;;;13.00;99.90;;;;;;5101566;28;20249;-67
2023/10/31 03:05:07;;;;;;;5.73;4.00;;;13.00;99.90;;;;;;5106739;28;20261;-67
2023/10/31 03:07:34;;;;;;;4.67;3.80;;;13.00;99.90;;;;;;5095948;28;20316;-68
2023/10/31 03:10:01;;;;;;;4.10;3.80;;;12.90;99.90;;;;;;5106345;28;20233;-67
2023/10/31 03:12:29;;;;;;;5.17;4.20;;;12.90;99.90;;;;;;5105965;28;20642;-67
2023/10/31 03:14:57;;;;;;;4.20;3.90;;;12.80;99.90;;;;;;5106083;28;20549;-67
2023/10/31 03:17:25;;;;;;;8.13;4.50;;;12.80;99.90;;;;;;5105493;28;20293;-67
2023/10/31 03:19:52;;;;;;;4.27;3.83;;;12.70;99.90;;;;;;5105767;28;20206;-67
2023/10/31 03:22:19;;;;;;;5.53;4.40;;;12.80;99.90;;;;;;5100163;28;20305;-67
2023/10/31 03:24:46;;;;;;;5.17;4.30;;;12.70;99.90;;;;;;5104362;28;20214;-68
2023/10/31 03:27:12;;;;;;;6.23;4.57;;;12.70;99.90;;;;;;5092957;28;20318;-67
2023/10/31 03:29:39;;;;;;;6.27;4.27;;;12.70;99.90;;;;;;5085029;28;20566;-67
2023/10/31 03:32:10;;;;;;;6.20;4.17;;;12.70;99.90;;;;;;5089483;28;20329;-67
2023/10/31 03:34:37;;;;;;;4.63;4.20;;;12.60;99.90;;;;;;5096285;28;20283;-67
2023/10/31 03:37:04;;;;;;;9.00;4.20;;;12.60;99.90;;;;;;5104220;28;20662;-67
2023/10/31 03:39:31;;;;;;;8.17;4.97;;;12.60;99.90;;;;;;5103664;28;20210;-67
2023/10/31 03:41:58;;;;;;;6.33;3.97;;;12.50;99.90;;;;;;5103803;28;20202;-67
2023/10/31 03:44:25;;;;;;;4.37;3.97;;;12.50;99.90;;;;;;5103471;28;20285;-67
2023/10/31 03:46:52;;;;;;;4.43;4.13;;;12.50;99.90;;;;;;5083667;28;20204;-67
2023/10/31 03:49:20;;;;;;;5.60;4.10;;;12.50;99.90;;;;;;5084189;28;20207;-67
2023/10/31 03:51:47;;;;;;;4.50;3.77;;;12.40;99.90;;;;;;5103392;28;20237;-67
2023/10/31 03:54:15;;;;;;;5.37;4.30;;;12.30;99.90;;;;;;5103401;28;20321;-66
2023/10/31 03:56:42;;;;;;;7.00;4.07;;;12.20;99.90;;;;;;5103239;28;20782;-67
2023/10/31 03:59:09;;;;;;;5.80;4.20;;;12.20;99.90;;;;;;5104591;28;20233;-66
2023/10/31 04:01:36;;;;;;;4.60;4.10;;;12.20;99.90;;;;;;5110518;27;20205;-66
2023/10/31 04:04:03;;;;;;;4.37;4.03;;;12.20;99.90;;;;;;5095796;27;20210;-67
2023/10/31 04:06:31;;;;;;;4.43;4.03;;;12.20;99.90;;;;;;5091694;28;20253;-67
2023/10/31 04:08:58;;;;;;;6.60;4.27;;;12.10;99.90;;;;;;5091769;28;20202;-67
2023/10/31 04:11:25;;;;;;;5.00;4.50;;;12.00;99.90;;;;;;5094944;28;20213;-67
2023/10/31 04:13:52;;;;;;;5.53;4.60;;;12.10;99.90;;;;;;5090475;28;20201;-66
2023/10/31 04:16:19;;;;;;;5.40;5.00;;;12.00;99.90;;;;;;5090484;28;20332;-67
2023/10/31 04:18:46;;;;;;;5.57;5.03;;;12.00;99.90;;;;;;5090990;28;20289;-66
2023/10/31 04:21:13;;;;;;;5.60;4.93;;;12.00;99.90;;;;;;5111465;27;20313;-67
2023/10/31 04:23:41;;;;;;;6.23;5.17;;;12.10;99.90;;;;;;5111256;27;20216;-67
2023/10/31 04:26:08;;;;;;;6.27;4.77;;;12.20;99.90;;;;;;5111097;27;20193;-67
2023/10/31 04:28:35;;;;;;;5.60;5.13;;;12.20;99.90;;;;;;5097401;27;20309;-67
2023/10/31 04:31:02;;;;;;;7.10;5.63;;;12.20;99.90;;;;;;5101418;28;20205;-67
2023/10/31 04:33:30;;;;;;;5.60;5.20;;;12.10;99.90;;;;;;5110294;27;20210;-66
2023/10/31 04:35:57;;;;;;;7.30;6.67;;;12.10;99.90;;;;;;5111863;27;20321;-67
2023/10/31 04:38:23;;;;;;;10.33;6.43;;;12.20;99.90;;;;;;5111666;27;20289;-66
2023/10/31 04:40:52;;;;;;;6.50;5.90;;;12.20;99.90;;;;;;5112299;27;20300;-67
2023/10/31 04:43:18;;;;;;;6.27;5.80;;;12.30;99.90;;;;;;5112027;27;20301;-67
2023/10/31 04:45:45;;;;;;;7.53;6.10;;;12.30;99.90;;;;;;5111913;27;20672;-67
2023/10/31 04:48:14;;;;;;;6.63;5.90;;;12.30;99.90;;;;;;5111921;27;20201;-67
2023/10/31 04:50:41;;;;;;;6.67;6.07;;;12.20;99.90;;;;;;5111817;27;20309;-67
2023/10/31 04:53:08;;;;;;;6.67;6.07;;;12.30;99.90;;;;;;5111940;27;20222;-67
2023/10/31 04:55:35;;;;;;;7.13;6.43;;;12.20;99.90;;;;;;5111368;27;20213;-67
2023/10/31 04:58:04;;;;;;;6.60;6.03;;;12.20;99.90;;;;;;5111397;27;20241;-67
2023/10/31 05:00:31;;;;;;;7.17;5.93;;;12.20;99.90;;;;;;5110846;27;20776;-67
2023/10/31 05:02:59;;;;;;;6.23;5.83;;;12.20;99.90;;;;;;5108220;27;20301;-66
2023/10/31 05:05:26;;;;;;;6.70;6.10;;;12.10;99.90;;;;;;5090816;28;20195;-67
2023/10/31 05:07:53;;;;;;;11.27;6.13;;;12.20;99.90;;;;;;5090997;28;20216;-67
2023/10/31 05:10:20;;;;;;;6.50;5.87;;;12.10;99.90;;;;;;5090193;28;20234;-67
2023/10/31 05:12:47;;;;;;;5.93;5.53;;;12.20;99.90;;;;;;5087156;28;20234;-67
2023/10/31 05:15:15;;;;;;;6.33;5.83;;;12.20;99.90;;;;;;5089722;28;20743;-67
2023/10/31 05:17:42;;;;;;;6.30;5.80;;;12.20;99.90;;;;;;5107860;28;20336;-67
2023/10/31 05:20:10;;;;;;;6.00;5.40;;;12.20;99.90;;;;;;5108238;28;20206;-67
2023/10/31 05:22:38;;;;;;;5.50;5.13;;;12.20;99.90;;;;;;5107977;28;20201;-67
2023/10/31 05:25:06;;;;;;;5.27;4.87;;;12.20;99.90;;;;;;5091598;28;20301;-67
2023/10/31 05:27:33;;;;;;;5.47;5.07;;;12.20;99.90;;;;;;5099215;28;20206;-67
2023/10/31 05:29:59;;;;;;;6.23;5.30;;;12.20;99.90;;;;;;5107890;28;20293;-67
2023/10/31 05:32:28;;;;;;;5.70;5.30;;;12.20;99.90;;;;;;5107155;28;20281;-67
2023/10/31 05:34:55;;;;;;;5.07;4.77;;;12.20;99.90;;;;;;5106423;28;20198;-66
2023/10/31 05:37:22;;;;;;;5.10;4.80;;;12.20;99.90;;;;;;5107298;28;20248;-67
2023/10/31 05:39:48;;;;;;;5.10;4.73;;;12.10;99.90;;;;;;5107778;28;20214;-67
2023/10/31 05:42:15;;;;;;;5.37;5.00;;;12.10;99.90;;;;;;5102812;28;20199;-67
2023/10/31 05:44:42;;;;;;;5.20;4.90;;;12.10;99.90;;;;;;5087380;28;20325;-67
2023/10/31 05:47:10;;;;;;;5.40;5.00;;;12.10;99.90;;;;;;5087203;28;20321;-67
2023/10/31 05:49:38;;;;;;;6.23;5.83;;;12.20;99.90;;;;;;5086811;28;20313;-67
2023/10/31 05:52:06;;;;;;;5.63;5.13;;;12.10;99.90;;;;;;5087080;28;20223;-67
2023/10/31 05:54:33;;;;;;;5.80;5.40;;;12.20;99.90;;;;;;5086935;28;20282;-67
2023/10/31 05:56:59;;;;;;;6.47;5.97;;;12.20;99.90;;;;;;5086860;28;20230;-67
2023/10/31 05:59:25;;;;;;;5.73;5.33;;;12.20;99.90;;;;;;5086564;28;20742;-66
2023/10/31 06:01:52;;;;;;;6.50;5.93;;;12.30;99.90;;;;;;5086803;28;20213;-67
2023/10/31 06:04:19;;;;;;;7.03;6.43;;;12.20;99.90;;;;;;5100990;28;20216;-67
2023/10/31 06:06:47;;;;;;;7.17;6.57;;;12.30;99.90;;;;;;5091570;28;20675;-67
2023/10/31 06:09:14;;;;;;;7.23;6.50;;;12.20;99.90;;;;;;5086082;28;20726;-66
2023/10/31 06:11:43;;;;;;;7.63;7.03;;;12.30;99.90;;;;;;5086536;28;20215;-67
2023/10/31 06:14:10;;;;;;;8.10;7.23;;;12.20;99.90;;;;;;5086712;28;20213;-66
2023/10/31 06:16:41;;;;;;;9.30;7.10;;;12.20;99.90;;;;;;5086206;28;20692;-67
2023/10/31 06:19:08;;;;;;;8.33;7.13;;;12.30;99.90;;;;;;5086450;28;20220;-66
2023/10/31 06:21:35;;;;;;;8.43;7.63;;;12.30;99.90;;;;;;5086809;28;20303;-67
2023/10/31 06:24:04;;;;;;;7.40;6.80;;;12.30;99.90;;;;;;5100598;28;20244;-66
2023/10/31 06:26:31;;;;;;;7.67;6.97;;;12.30;99.90;;;;;;5099640;28;20211;-67
2023/10/31 06:28:57;;;;;;;7.23;6.67;;;12.30;99.90;;;;;;5086103;28;20689;-67
2023/10/31 06:31:24;;;;;;;8.73;7.07;;;12.40;99.90;;;;;;5104781;28;20206;-67
2023/10/31 06:33:51;;;;;;;7.63;7.07;;;12.40;99.90;;;;;;5106183;28;20309;-67
2023/10/31 06:36:18;;;;;;;7.20;6.37;;;12.40;99.90;;;;;;5106067;28;20240;-66
2023/10/31 06:38:45;;;;;;;6.93;6.33;;;12.40;99.90;;;;;;5106162;28;20202;-67
2023/10/31 06:41:13;;;;;;;7.07;6.00;;;12.40;99.90;;;;;;5106210;28;20202;-67
2023/10/31 06:43:40;;;;;;;5.80;5.40;;;12.40;99.90;;;;;;5105922;28;20202;-67
2023/10/31 06:46:07;;;;;;;6.70;5.97;;;12.40;99.90;;;;;;5106337;28;20202;-67
2023/10/31 06:48:34;;;;;;;6.57;5.20;;;12.50;99.90;;;;;;5105953;27;20206;-66
2023/10/31 06:51:01;;;;;;;5.60;5.00;;;12.50;99.90;;;;;;5106590;28;20210;-67
2023/10/31 06:53:28;;;;;;;5.73;4.40;;;12.50;99.90;;;;;;5106218;28;20226;-66
2023/10/31 06:55:54;;;;;;;5.67;5.00;;;12.50;99.90;;;;;;5106432;28;20289;-67
2023/10/31 06:58:23;;;;;;;5.23;4.73;;;12.50;99.90;;;;;;5106110;28;20325;-66
2023/10/31 07:00:50;;;;;;;4.20;3.90;;;12.50;99.90;;;;;;5105880;28;20245;-67
2023/10/31 07:03:16;;;;;;;4.40;3.87;;;12.60;99.90;;;;;;5106083;28;20835;-67
2023/10/31 07:05:43;;;;;;;4.07;3.77;;;12.60;99.90;;;;;;5105629;28;20206;-66
2023/10/31 07:08:10;;;;;;;3.90;3.53;;;12.60;99.90;;;;;;5105718;28;20284;-66
2023/10/31 07:10:37;;;;;;;3.77;3.57;;;12.50;99.90;;;;;;5106090;28;20665;-67
2023/10/31 07:13:04;;;;;;;3.30;3.10;;;12.50;99.90;;;;;;5106082;28;20957;-66
2023/10/31 07:15:32;;;;;;;5.37;3.30;;;12.50;99.90;;;;;;5105669;28;20736;-67
2023/10/31 07:17:59;;;;;;;3.13;2.93;;;12.50;99.90;;;;;;5086417;27;20330;-67
2023/10/31 07:20:26;;;;;;;3.53;2.77;;;12.50;99.90;;;;;;5101119;28;20642;-66
2023/10/31 07:22:53;;;;;;;3.20;3.00;;;12.40;99.90;;;;;;5105799;28;20702;-66
2023/10/31 07:25:20;;;;;;;3.40;3.00;;;12.50;99.90;;;;;;5106014;28;20365;-66
2023/10/31 07:27:47;;;;;;;2.80;2.60;;;12.50;99.90;;;;;;5087723;28;20264;-67
2023/10/31 07:30:14;;;;;;;2.77;2.57;;;12.40;99.90;;;;;;5095760;28;20300;-66
2023/10/31 07:32:43;;;;;;;3.90;2.70;;;12.50;99.90;;;;;;5105360;28;20306;-67
2023/10/31 07:35:10;;;;;;;2.50;2.30;;;12.50;99.90;;;;;;5096745;28;20246;-66
2023/10/31 07:37:37;;;;;;;2.60;2.37;;;12.40;99.90;;;;;;5084638;28;20349;-66
2023/10/31 07:40:05;;;;;;;2.30;1.90;;;12.40;99.90;;;;;;5084807;28;20657;-67
2023/10/31 07:42:32;;;;;;;2.13;2.03;;;12.40;99.90;;;;;;5084654;28;20250;-66
2023/10/31 07:44:58;;;;;;;2.27;2.10;;;12.40;99.90;;;;;;5084736;28;20293;-67
2023/10/31 07:47:25;;;;;;;1.50;1.40;;;12.40;99.90;;;;;;5084738;28;20221;-66
2023/10/31 07:49:54;;;;;;;1.60;1.50;;;12.40;99.90;;;;;;5085091;28;20321;-67
2023/10/31 07:52:21;;;;;;;1.97;1.50;;;12.30;99.90;;;;;;5085375;28;20233;-66
2023/10/31 07:54:48;;;;;;;1.50;1.40;;;12.30;99.90;;;;;;5085171;28;20271;-66
2023/10/31 07:57:15;;;;;;;3.77;1.00;;;12.30;99.90;;;;;;5085170;28;20329;-67
2023/10/31 07:59:41;;;;;;;1.23;1.13;;;12.30;99.90;;;;;;5084438;28;20198;-66
2023/10/31 08:02:08;;;;;;;0.87;0.87;;;12.20;99.90;;;;;;5084766;28;20260;-66
2023/10/31 08:04:35;;;;;;;2.63;1.00;;;12.20;99.90;;;;;;5091503;28;20210;-66
2023/10/31 08:07:04;;;;;;;0.80;0.80;;;12.20;99.90;;;;;;5105324;28;20301;-66
2023/10/31 08:09:31;;;;;;;0.90;0.90;;;12.20;99.90;;;;;;5104719;28;20206;-65
2023/10/31 08:11:57;;;;;;;0.77;0.77;;;12.20;99.90;;;;;;5104952;28;20583;-67
2023/10/31 08:14:25;;;;;;;2.00;0.83;;;12.20;99.90;;;;;;5084347;28;20207;-67
2023/10/31 08:16:51;;;;;;;0.57;0.57;;;12.30;99.90;;;;;;5084713;28;20342;-66
2023/10/31 08:19:18;;;;;;;0.70;0.70;;;12.30;99.90;;;;;;5084635;28;20206;-66
2023/10/31 08:21:45;;;;;;;0.87;0.67;;;12.20;99.90;;;;;;5085587;28;20298;-66
2023/10/31 08:24:14;;;;;;;1.80;0.70;;;12.20;99.90;;;;;;5105172;28;20285;-66
2023/10/31 08:26:41;;;;;;;0.40;0.40;;;12.20;99.90;;;;;;5093120;28;20226;-66
2023/10/31 08:29:08;;;;;;;2.13;0.60;;;12.20;99.90;;;;;;5084466;28;20234;-66
2023/10/31 08:31:35;;;;;;;0.60;0.60;;;12.20;99.90;;;;;;5084812;28;20302;-66
2023/10/31 08:34:01;;;;;;;0.40;0.40;;;12.30;99.90;;;;;;5096142;28;20299;-66
2023/10/31 08:36:30;;;;;;;0.60;0.60;;;12.30;99.90;;;;;;5104758;28;20280;-66
2023/10/31 08:38:57;;;;;;;0.53;0.53;;;12.30;99.90;;;;;;5104528;28;20294;-66
2023/10/31 08:41:26;;;;;;;1.13;0.50;;;12.40;99.90;;;;;;5104651;28;20577;-66
2023/10/31 08:43:53;;;;;;;0.30;0.30;;;12.40;99.90;;;;;;5104844;28;20206;-66
2023/10/31 08:46:21;;;;;;;0.40;0.40;;;12.40;99.90;;;;;;5106719;28;20651;-66
2023/10/31 08:48:48;;;;;;;0.30;0.30;;;12.40;99.90;;;;;;5108342;28;20611;-65
2023/10/31 08:51:15;;;;;;;2.97;0.63;;;12.40;99.90;;;;;;5108133;27;20886;-65
2023/10/31 08:53:42;;;;;;;0.20;0.20;;;12.30;99.90;;;;;;5108421;28;20230;-65
2023/10/31 08:56:09;;;;;;;0.60;0.60;;;12.40;99.90;;;;;;5108807;28;20317;-65
2023/10/31 08:58:37;;;;;;;0.57;0.40;;;12.30;99.90;;;;;;5108732;28;20230;-65
2023/10/31 09:01:04;;;;;;;3.27;0.50;;;12.30;99.90;;;;;;5108561;28;20643;-65
2023/10/31 09:03:33;;;;;;;0.30;0.30;;;12.30;99.90;;;;;;5108303;28;20216;-65
2023/10/31 09:06:00;;;;;;;0.50;0.50;;;12.30;99.90;;;;;;5109081;27;20241;-65
2023/10/31 09:08:27;;;;;;;1.57;0.50;;;12.30;99.90;;;;;;5105751;28;20229;-65
2023/10/31 09:10:54;;;;;;;0.97;0.50;;;12.40;99.90;;;;;;5087413;28;20579;-65
2023/10/31 09:13:21;;;;;;;1.77;0.40;;;12.40;99.90;;;;;;5106383;28;20299;-65
2023/10/31 09:15:50;;;;;;;0.63;0.30;;;12.50;99.90;;;;;;5107854;28;20214;-65
2023/10/31 09:18:17;;;;;;;0.27;0.20;;;12.70;99.90;;;;;;5107780;28;20229;-66
2023/10/31 09:20:44;;;;;;;0.20;0.20;;;12.80;99.90;;;;;;5107418;28;20214;-66
2023/10/31 09:23:10;;;;;;;1.03;0.40;;;12.90;99.90;;;;;;5094218;28;20297;-65
2023/10/31 09:25:37;;;;;;;0.90;0.30;;;12.80;99.90;;;;;;5087844;28;20213;-65
2023/10/31 09:28:04;;;;;;;0.40;0.37;;;12.70;99.90;;;;;;5087766;28;20313;-65
2023/10/31 09:30:31;;;;;;;0.40;0.40;;;12.70;99.90;;;;;;5087354;28;20305;-66
2023/10/31 09:32:59;;;;;;;0.40;0.40;;;12.70;99.90;;;;;;5090358;28;20286;-65
2023/10/31 09:35:27;;;;;;;0.90;0.40;;;12.60;99.90;;;;;;5108334;28;20633;-65
2023/10/31 09:37:54;;;;;;;0.53;0.47;;;12.60;99.90;;;;;;5107514;28;20740;-65
2023/10/31 09:40:21;;;;;;;0.50;0.50;;;12.60;99.90;;;;;;5107927;28;20214;-65
2023/10/31 09:42:49;;;;;;;0.70;0.70;;;12.70;99.90;;;;;;5107927;28;20208;-65
2023/10/31 09:45:16;;;;;;;0.43;0.43;;;12.70;99.90;;;;;;5107464;28;20229;-65
2023/10/31 09:47:43;;;;;;;1.27;0.73;;;12.70;99.90;;;;;;5107383;28;20210;-65
2023/10/31 09:50:12;;;;;;;1.03;0.63;;;12.80;99.90;;;;;;5107370;28;20305;-65
2023/10/31 09:52:39;;;;;;;0.50;0.50;;;12.90;99.90;;;;;;5106962;28;20774;-65
2023/10/31 09:55:07;;;;;;;1.17;0.90;;;12.90;99.90;;;;;;5107390;27;20668;-66
2023/10/31 09:57:34;;;;;;;1.13;0.70;;;12.80;99.90;;;;;;5095766;28;20342;-66
2023/10/31 10:00:01;;;;;;;1.93;0.77;;;12.80;99.90;;;;;;5086327;28;20202;-66
2023/10/31 10:02:28;;;;;;;1.20;1.20;;;12.80;99.90;;;;;;5086397;28;20207;-65
2023/10/31 10:04:55;;;;;;;1.13;0.80;;;12.90;99.90;;;;;;5086658;28;20214;-65
2023/10/31 10:07:23;;;;;;;0.63;0.63;;;12.70;99.90;;;;;;5086698;28;20343;-65
2023/10/31 10:09:50;;;;;;;0.70;0.70;;;12.80;99.90;;;;;;5086422;28;20322;-66
2023/10/31 10:12:17;;;;;;;0.60;0.60;;;12.80;99.90;;;;;;5086960;28;20213;-65
2023/10/31 10:14:46;;;;;;;1.40;0.93;;;12.80;99.90;;;;;;5091295;28;20309;-66
2023/10/31 10:17:18;;;;;;;0.50;0.50;;;12.80;99.90;;;;;;5107120;27;20210;-65
2023/10/31 10:19:45;;;;;;;0.83;0.80;;;12.80;99.90;;;;;;5106289;28;20210;-65
2023/10/31 10:22:13;;;;;;;0.97;0.97;;;12.80;99.90;;;;;;5106964;27;20317;-65
2023/10/31 10:24:44;;;;;;;0.80;0.80;;;12.80;99.90;;;;;;5106484;28;20217;-65
2023/10/31 10:27:11;;;;;;;0.80;0.80;;;12.90;99.90;;;;;;5106769;28;20226;-66
2023/10/31 10:29:41;;;;;;;1.10;1.00;;;12.90;99.90;;;;;;5106383;28;20749;-65
2023/10/31 10:32:09;;;;;;;0.77;0.77;;;12.90;99.90;;;;;;5106455;28;20661;-66
2023/10/31 10:34:36;;;;;;;0.90;0.90;;;12.90;99.90;;;;;;5106438;28;20249;-65
2023/10/31 10:37:06;;;;;;;1.00;1.00;;;13.00;99.90;;;;;;5106167;28;20248;-65
2023/10/31 10:39:35;;;;;;;1.33;1.10;;;13.00;99.90;;;;;;5106492;28;20218;-65
2023/10/31 10:42:10;;;;;;;0.97;0.97;;;13.00;99.90;;;;;;5106579;28;20271;-65
2023/10/31 10:44:38;;;;;;;1.13;1.00;;;13.00;99.90;;;;;;5106660;28;20205;-65
2023/10/31 10:47:06;;;;;;;3.73;2.17;;;13.00;99.90;;;;;;5106540;28;20217;-65
2023/10/31 10:49:35;;;;;;;3.43;3.13;;;13.10;99.90;;;;;;5106363;28;20334;-66
2023/10/31 10:52:11;;;;;;;2.10;1.57;;;13.10;99.90;;;;;;5106297;28;21007;-65
2023/10/31 10:54:45;;;;;;;1.40;1.40;;;13.00;99.90;;;;;;5088519;28;20226;-66
2023/10/31 10:57:20;;;;;;;1.40;1.30;;;13.20;99.90;;;;;;5086089;28;20615;-65
2023/10/31 10:59:52;;;;;;;1.23;1.20;;;13.30;99.90;;;;;;5086020;28;20305;-65
2023/10/31 11:02:19;;;;;;;2.27;2.07;;;13.40;99.90;;;;;;5085634;28;20226;-65
2023/10/31 11:04:48;;;;;;;3.77;1.50;;;13.50;99.90;;;;;;5104016;28;20812;-65
2023/10/31 11:07:16;;;;;;;1.43;1.30;;;13.40;99.90;;;;;;5105918;28;20214;-66
2023/10/31 11:09:44;;;;;;;1.60;1.50;;;13.40;99.90;;;;;;5104881;28;20279;-65
2023/10/31 11:12:12;;;;;;;3.53;1.20;;;13.40;99.90;;;;;;5106189;28;20210;-65
2023/10/31 11:14:42;;;;;;;1.67;1.60;;;13.40;99.90;;;;;;5105494;28;20201;-66
2023/10/31 11:17:22;;;;;;;1.47;1.37;;;13.30;99.90;;;;;;5105685;28;20219;-65
2023/10/31 11:19:49;;;;;;;1.57;1.40;;;13.30;99.90;;;;;;5105418;28;20249;-65
2023/10/31 11:22:19;;;;;;;2.53;2.10;;;13.20;99.90;;;;;;5105989;28;20205;-65
2023/10/31 11:24:46;;;;;;;2.27;2.13;;;13.20;99.90;;;;;;5105690;28;20206;-65
2023/10/31 11:27:13;;;;;;;2.10;1.60;;;13.20;99.90;;;;;;5093427;28;20289;-66
2023/10/31 11:29:41;;;;;;;1.60;1.50;;;13.20;99.90;;;;;;5085834;28;20552;-65
2023/10/31 11:32:09;;;;;;;1.70;1.60;;;13.20;99.90;;;;;;5085190;28;20355;-65
2023/10/31 11:34:39;;;;;;;2.60;1.93;;;13.20;99.90;;;;;;5102358;28;20213;-66
2023/10/31 11:37:26;;;;;;;1.20;1.20;;;13.20;99.90;;;;;;5105826;28;20234;-66
2023/10/31 11:40:18;;;;;;;1.50;1.40;;;13.10;99.90;;;;;;5106093;28;20232;-66
2023/10/31 11:42:49;;;;;;;1.20;1.20;;;13.10;99.90;;;;;;5105520;28;20204;-66
2023/10/31 11:45:28;;;;;;;2.03;1.73;;;13.20;99.90;;;;;;5105938;28;20217;-66
2023/10/31 11:47:55;;;;;;;1.50;1.40;;;13.20;99.90;;;;;;5105388;28;20202;-66
2023/10/31 11:50:22;;;;;;;0.97;0.97;;;13.20;99.90;;;;;;5092025;28;20314;-66
2023/10/31 11:53:04;;;;;;;0.80;0.80;;;13.40;99.90;;;;;;5085694;28;20975;-66
2023/10/31 11:55:33;;;;;;;0.90;0.90;;;13.60;99.90;;;;;;5085245;28;20256;-66
2023/10/31 11:58:00;;;;;;;1.00;0.90;;;13.60;99.90;;;;;;5085323;28;20207;-66
2023/10/31 12:00:28;;;;;;;0.80;0.80;;;13.50;99.90;;;;;;5090083;28;20229;-66
2023/10/31 12:02:59;;;;;;;0.60;0.60;;;13.40;99.90;;;;;;5104962;28;20301;-66
2023/10/31 12:05:26;;;;;;;0.73;0.73;;;13.30;99.90;;;;;;5105461;28;20205;-66
2023/10/31 12:07:53;;;;;;;0.80;0.80;;;13.20;99.90;;;;;;5095713;28;20207;-66
2023/10/31 12:10:24;;;;;;;0.77;0.77;;;13.10;99.90;;;;;;5085302;28;20298;-66
2023/10/31 12:12:51;;;;;;;0.63;0.60;;;13.10;99.90;;;;;;5084695;28;20198;-66
2023/10/31 12:15:18;;;;;;;0.40;0.40;;;13.10;99.90;;;;;;5084713;28;20728;-66
2023/10/31 12:17:46;;;;;;;0.60;0.60;;;13.00;99.90;;;;;;5084599;28;20230;-66
2023/10/31 12:20:13;;;;;;;1.07;0.70;;;13.00;99.90;;;;;;5085170;28;20689;-66
2023/10/31 12:22:40;;;;;;;0.50;0.50;;;13.00;99.90;;;;;;5088979;28;20217;-66
2023/10/31 12:25:09;;;;;;;1.50;0.50;;;13.00;99.90;;;;;;5088653;28;20675;-66
2023/10/31 12:27:46;;;;;;;0.50;0.50;;;13.00;99.90;;;;;;5088174;28;20297;-66
2023/10/31 12:30:14;;;;;;;0.50;0.50;;;13.00;99.90;;;;;;5089078;28;20631;-66
2023/10/31 12:32:42;;;;;;;0.83;0.60;;;13.00;99.90;;;;;;5088827;28;20298;-66
2023/10/31 12:35:15;;;;;;;1.70;0.40;;;13.00;99.90;;;;;;5109459;28;20402;-66
2023/10/31 12:37:44;;;;;;;0.40;0.40;;;12.90;99.90;;;;;;5108845;28;20241;-66
2023/10/31 12:40:12;;;;;;;0.37;0.37;;;13.00;99.90;;;;;;5109265;28;20721;-66
2023/10/31 12:42:39;;;;;;;0.60;0.40;;;13.00;99.90;;;;;;5109563;28;20210;-66
2023/10/31 12:45:08;;;;;;;0.40;0.30;;;12.90;99.90;;;;;;5108523;28;20301;-66
2023/10/31 12:47:35;;;;;;;0.47;0.47;;;12.90;99.90;;;;;;5088075;28;20206;-66
2023/10/31 12:50:10;;;;;;;2.47;0.47;;;12.90;99.90;;;;;;5088328;28;20219;-66